Time;durP1;ratioP1;P1;durP2;ratioP2;P2;SDS_P1;SDS_P2;PMS_P1;PMS_P2;Temp;Humidity;BMP_temperature;BMP_pressure;BME280_temperature;BME280_humidity;BME280_pressure;Samples;Min_cycle;Max_cycle;Signal;HPM_P1;HPM_P2
2021/09/04 00:01:12;;;;;;;20.08;8.45;;;15.90;99.90;;;;;;5037474;28;20053;-80
2021/09/04 00:03:40;;;;;;;21.98;9.48;;;15.90;99.90;;;;;;5027260;28;20054;-81
2021/09/04 00:06:13;;;;;;;18.83;7.97;;;16.00;99.90;;;;;;5044455;28;20048;-81
2021/09/04 00:08:42;;;;;;;21.75;9.07;;;16.00;99.90;;;;;;5042373;28;20056;-80
2021/09/04 00:11:11;;;;;;;25.70;9.20;;;16.00;99.90;;;;;;5038160;28;20044;-80
2021/09/04 00:13:40;;;;;;;25.33;9.85;;;16.00;99.90;;;;;;5043553;28;20041;-80
2021/09/04 00:16:10;;;;;;;24.33;9.98;;;16.10;99.90;;;;;;5039707;28;20060;-80
2021/09/04 00:18:44;;;;;;;23.40;8.15;;;16.10;99.90;;;;;;5043749;28;20043;-79
2021/09/04 00:21:17;;;;;;;32.60;10.70;;;16.10;99.90;;;;;;5042643;28;20435;-80
2021/09/04 00:23:49;;;;;;;22.00;8.65;;;16.10;99.90;;;;;;5043030;28;20041;-80
2021/09/04 00:26:17;;;;;;;19.48;7.70;;;16.10;99.90;;;;;;5037298;28;20053;-79
2021/09/04 00:28:45;;;;;;;23.73;8.70;;;16.10;99.90;;;;;;5057443;28;20049;-81
2021/09/04 00:31:13;;;;;;;25.35;9.45;;;16.10;99.90;;;;;;5039764;28;20049;-80
2021/09/04 00:33:41;;;;;;;21.27;7.72;;;16.10;99.90;;;;;;5041019;28;20049;-81
2021/09/04 00:36:09;;;;;;;25.50;9.52;;;16.10;99.90;;;;;;5048093;28;20037;-80
2021/09/04 00:38:37;;;;;;;19.15;8.77;;;16.10;99.90;;;;;;5050553;28;20049;-80
2021/09/04 00:41:05;;;;;;;24.02;9.68;;;16.10;99.90;;;;;;5031339;28;20049;-80
2021/09/04 00:43:33;;;;;;;20.40;8.88;;;16.10;99.90;;;;;;5034871;28;20041;-80
2021/09/04 00:46:10;;;;;;;20.50;9.07;;;16.10;99.90;;;;;;5029089;28;20045;-80
2021/09/04 00:48:38;;;;;;;28.60;8.52;;;16.10;99.90;;;;;;5046447;28;20059;-81
2021/09/04 00:51:16;;;;;;;23.77;9.05;;;16.10;99.90;;;;;;5044551;28;20071;-80
2021/09/04 00:53:45;;;;;;;19.48;8.05;;;16.10;99.90;;;;;;5039505;28;20060;-80
2021/09/04 00:56:15;;;;;;;16.85;8.40;;;16.20;99.90;;;;;;5044162;28;20045;-80
2021/09/04 00:58:44;;;;;;;19.52;8.85;;;16.20;99.90;;;;;;5042546;28;20057;-80
2021/09/04 01:01:12;;;;;;;20.42;8.20;;;16.20;99.90;;;;;;5041714;28;20045;-80
2021/09/04 01:03:45;;;;;;;26.65;9.57;;;16.20;99.90;;;;;;5046572;28;20045;-80
2021/09/04 01:06:36;;;;;;;20.27;10.35;;;16.20;99.90;;;;;;5052352;28;20068;-80
2021/09/04 01:09:07;;;;;;;28.92;10.52;;;16.20;99.90;;;;;;5043760;28;20053;-81
2021/09/04 01:11:36;;;;;;;20.43;10.37;;;16.20;99.90;;;;;;5047328;28;20053;-81
2021/09/04 01:14:05;;;;;;;22.55;8.63;;;16.20;99.90;;;;;;5057156;28;20298;-80
2021/09/04 01:16:41;;;;;;;20.08;9.52;;;16.20;99.90;;;;;;5054005;28;20480;-81
2021/09/04 01:19:10;;;;;;;20.48;8.48;;;16.20;99.90;;;;;;5032219;28;20052;-81
2021/09/04 01:21:39;;;;;;;19.30;9.13;;;16.20;99.90;;;;;;5030438;28;20045;-80
2021/09/04 01:24:08;;;;;;;22.05;10.77;;;16.20;99.90;;;;;;5050617;28;20049;-80
2021/09/04 01:26:36;;;;;;;26.38;9.15;;;16.20;99.90;;;;;;5054088;28;20053;-80
2021/09/04 01:29:05;;;;;;;20.33;9.18;;;16.20;99.90;;;;;;5041666;28;20061;-80
2021/09/04 01:31:33;;;;;;;19.20;9.25;;;16.20;99.90;;;;;;5051232;28;20041;-81
2021/09/04 01:34:02;;;;;;;20.08;9.80;;;16.20;99.90;;;;;;5043250;28;20810;-81
2021/09/04 01:36:36;;;;;;;22.65;9.88;;;16.20;99.90;;;;;;5050175;28;20047;-81
2021/09/04 01:39:07;;;;;;;20.15;9.65;;;16.30;99.90;;;;;;5038527;28;20033;-81
2021/09/04 01:41:37;;;;;;;23.42;8.30;;;16.30;99.90;;;;;;5057983;28;20078;-80
2021/09/04 01:44:07;;;;;;;20.35;8.65;;;16.30;99.90;;;;;;5044808;28;20147;-80
2021/09/04 01:46:35;;;;;;;19.45;9.27;;;16.30;99.90;;;;;;5044499;28;20041;-81
2021/09/04 01:49:04;;;;;;;20.67;8.80;;;16.30;99.90;;;;;;5044848;28;20046;-80
2021/09/04 01:51:33;;;;;;;23.95;9.02;;;16.30;99.90;;;;;;5042987;28;20049;-79
2021/09/04 01:54:01;;;;;;;23.70;10.35;;;16.20;99.90;;;;;;5045507;28;20060;-80
2021/09/04 01:56:29;;;;;;;23.00;9.80;;;16.30;99.90;;;;;;5045948;28;20049;-81
2021/09/04 01:59:00;;;;;;;19.52;9.88;;;16.30;99.90;;;;;;5055399;28;20057;-80
2021/09/04 02:01:30;;;;;;;;;;;16.20;99.90;;;;;;5023943;28;20065;-79
2021/09/04 02:03:58;;;;;;;23.35;8.55;;;16.20;99.90;;;;;;5045111;28;19932;-80
2021/09/04 02:06:29;;;;;;;25.55;9.05;;;16.20;99.90;;;;;;5043533;28;20053;-80
2021/09/04 02:08:57;;;;;;;22.05;9.10;;;16.20;99.90;;;;;;5045704;28;20044;-80
2021/09/04 02:11:25;;;;;;;26.13;9.32;;;16.20;99.90;;;;;;5045966;28;20061;-80
2021/09/04 02:13:53;;;;;;;20.25;8.93;;;16.20;99.90;;;;;;5036739;28;20045;-81
2021/09/04 02:16:21;;;;;;;23.02;9.20;;;16.30;99.90;;;;;;5049070;28;20061;-80
2021/09/04 02:18:49;;;;;;;19.70;9.23;;;16.30;99.90;;;;;;5030676;28;20055;-80
2021/09/04 02:21:18;;;;;;;22.23;10.27;;;16.30;99.90;;;;;;5047495;28;20041;-80
2021/09/04 02:23:48;;;;;;;20.60;9.50;;;16.30;99.90;;;;;;5047776;28;20049;-80
2021/09/04 02:26:18;;;;;;;20.58;8.65;;;16.30;99.90;;;;;;5049970;28;20052;-80
2021/09/04 02:28:46;;;;;;;27.25;10.63;;;16.30;99.90;;;;;;5050973;28;20045;-80
2021/09/04 02:31:15;;;;;;;17.65;9.15;;;16.30;99.90;;;;;;5034435;28;20046;-80
2021/09/04 02:33:43;;;;;;;21.35;9.05;;;16.30;99.90;;;;;;5049000;28;20049;-81
2021/09/04 02:36:11;;;;;;;22.45;9.00;;;16.30;99.90;;;;;;5046575;28;20041;-82
2021/09/04 02:38:39;;;;;;;22.40;9.18;;;16.20;99.90;;;;;;5030495;28;20049;-79
2021/09/04 02:41:08;;;;;;;22.90;10.35;;;16.30;99.90;;;;;;5046160;28;20072;-80
2021/09/04 02:43:39;;;;;;;20.42;10.05;;;16.30;99.90;;;;;;5047532;28;20479;-80
2021/09/04 02:46:09;;;;;;;23.30;9.98;;;16.30;99.90;;;;;;5046365;28;20046;-81
2021/09/04 02:48:37;;;;;;;17.83;8.25;;;16.30;99.90;;;;;;5029706;28;20053;-81
2021/09/04 02:51:05;;;;;;;20.40;9.32;;;16.30;99.90;;;;;;5047227;28;20056;-81
2021/09/04 02:53:33;;;;;;;24.08;10.30;;;16.30;99.90;;;;;;5047852;28;20059;-81
2021/09/04 02:56:01;;;;;;;33.15;12.52;;;16.30;99.90;;;;;;5047518;28;20313;-81
2021/09/04 02:58:32;;;;;;;24.48;11.68;;;16.30;99.90;;;;;;5047060;28;20045;-81
2021/09/04 03:01:02;;;;;;;18.25;9.35;;;16.30;99.90;;;;;;5046119;28;20056;-81
2021/09/04 03:03:31;;;;;;;29.80;10.73;;;16.30;99.90;;;;;;5047353;28;20041;-81
2021/09/04 03:06:02;;;;;;;22.15;9.20;;;16.30;99.90;;;;;;5046674;28;20131;-80
2021/09/04 03:08:33;;;;;;;24.52;11.90;;;16.30;99.90;;;;;;5028936;28;20063;-80
2021/09/04 03:11:06;;;;;;;30.73;12.70;;;16.30;99.90;;;;;;5029425;28;20054;-81
2021/09/04 03:13:35;;;;;;;;;;;16.40;99.90;;;;;;5045897;28;20505;-81
2021/09/04 03:16:03;;;;;;;23.92;10.82;;;16.30;99.90;;;;;;5046290;28;19917;-80
2021/09/04 03:18:31;;;;;;;25.00;10.93;;;16.30;99.90;;;;;;5046233;28;20054;-80
2021/09/04 03:20:59;;;;;;;25.58;11.43;;;16.20;99.90;;;;;;5044865;28;20047;-80
2021/09/04 03:23:28;;;;;;;21.42;10.38;;;16.30;99.90;;;;;;5027500;28;20068;-80
2021/09/04 03:25:59;;;;;;;27.63;9.98;;;16.30;99.90;;;;;;5047947;28;20051;-81
2021/09/04 03:28:28;;;;;;;29.25;11.50;;;16.20;99.90;;;;;;5046241;28;20060;-81
2021/09/04 03:30:55;;;;;;;31.77;10.52;;;16.20;99.90;;;;;;5047583;28;20043;-81
2021/09/04 03:33:25;;;;;;;24.55;12.27;;;16.20;99.90;;;;;;5029852;28;20064;-80
2021/09/04 03:35:53;;;;;;;29.70;11.40;;;16.20;99.90;;;;;;5045655;28;20042;-81
2021/09/04 03:38:21;;;;;;;29.67;13.38;;;16.30;99.90;;;;;;5029302;28;20045;-80
2021/09/04 03:40:50;;;;;;;26.17;11.43;;;16.20;99.90;;;;;;5047361;28;20041;-80
2021/09/04 03:43:19;;;;;;;34.67;12.13;;;16.20;99.90;;;;;;5047317;28;20061;-81
2021/09/04 03:45:49;;;;;;;25.77;11.35;;;16.70;99.90;;;;;;5027813;28;20049;-80
2021/09/04 03:48:22;;;;;;;28.80;12.90;;;16.20;99.90;;;;;;5047157;28;20045;-80
2021/09/04 03:50:51;;;;;;;24.05;11.55;;;16.10;99.90;;;;;;5025379;28;20056;-80
2021/09/04 03:53:19;;;;;;;25.65;10.52;;;16.10;99.90;;;;;;5047175;28;20136;-81
2021/09/04 03:55:47;;;;;;;24.95;11.45;;;16.10;99.90;;;;;;5045993;28;20045;-80
2021/09/04 03:58:16;;;;;;;28.38;12.95;;;16.10;99.90;;;;;;5051375;28;20061;-80
2021/09/04 04:00:45;;;;;;;29.35;13.63;;;16.10;99.90;;;;;;5054050;28;20038;-80
2021/09/04 04:03:13;;;;;;;34.85;13.38;;;16.10;99.90;;;;;;5050255;28;20060;-80
2021/09/04 04:05:42;;;;;;;31.40;12.68;;;16.00;99.90;;;;;;5049307;28;20063;-79
2021/09/04 04:08:12;;;;;;;25.77;12.40;;;15.50;99.90;;;;;;5050006;28;20044;-80
2021/09/04 04:10:41;;;;;;;32.50;13.70;;;16.00;99.90;;;;;;5045465;28;20071;-80
2021/09/04 04:13:08;;;;;;;32.45;13.93;;;16.00;99.90;;;;;;5044848;28;20053;-80
2021/09/04 04:15:39;;;;;;;30.77;13.30;;;16.00;99.90;;;;;;5042011;28;20053;-80
2021/09/04 04:18:08;;;;;;;25.45;11.60;;;16.00;99.90;;;;;;5044008;28;20057;-81
2021/09/04 04:20:37;;;;;;;33.17;14.35;;;16.00;99.90;;;;;;5037817;28;20029;-81
2021/09/04 04:23:05;;;;;;;31.70;13.65;;;16.00;99.90;;;;;;5039692;28;20076;-79
2021/09/04 04:25:34;;;;;;;31.65;13.57;;;16.00;99.90;;;;;;5027989;28;20045;-81
2021/09/04 04:28:04;;;;;;;34.60;14.27;;;15.90;99.90;;;;;;5046707;28;20060;-79
2021/09/04 04:30:36;;;;;;;38.95;13.85;;;15.90;99.90;;;;;;5027770;28;20054;-80
2021/09/04 04:33:06;;;;;;;31.77;12.93;;;15.90;99.90;;;;;;5045935;28;20060;-80
2021/09/04 04:35:34;;;;;;;36.03;13.02;;;15.90;99.90;;;;;;5046373;28;20057;-80
2021/09/04 04:38:03;;;;;;;33.13;14.65;;;15.90;99.90;;;;;;5046360;28;20065;-80
2021/09/04 04:40:34;;;;;;;21.80;12.77;;;15.90;99.90;;;;;;5044383;28;20057;-81
2021/09/04 04:43:03;;;;;;;28.95;14.32;;;15.90;99.90;;;;;;5038355;28;20046;-80
2021/09/04 04:45:32;;;;;;;27.23;13.10;;;15.90;99.90;;;;;;5022661;28;20281;-79
2021/09/04 04:48:00;;;;;;;39.45;14.55;;;15.90;99.90;;;;;;5045414;28;20050;-80
2021/09/04 04:50:30;;;;;;;27.92;13.77;;;15.90;99.90;;;;;;5042143;28;20053;-81
2021/09/04 04:52:59;;;;;;;32.40;13.73;;;15.90;99.90;;;;;;5061145;28;20049;-80
2021/09/04 04:55:29;;;;;;;34.47;13.18;;;15.90;99.90;;;;;;5012496;28;20053;-79
2021/09/04 04:57:58;;;;;;;34.30;15.18;;;15.80;99.90;;;;;;5028885;28;20045;-81
2021/09/04 05:00:27;;;;;;;39.38;14.88;;;15.80;99.90;;;;;;5022195;28;20053;-79
2021/09/04 05:02:55;;;;;;;34.78;13.70;;;15.90;99.90;;;;;;5007938;28;20057;-80
2021/09/04 05:05:24;;;;;;;27.88;13.20;;;15.90;99.90;;;;;;5032256;28;20041;-79
2021/09/04 05:07:52;;;;;;;38.60;16.48;;;15.90;99.90;;;;;;5026272;28;20045;-81
2021/09/04 05:10:20;;;;;;;27.40;13.68;;;15.90;99.90;;;;;;5026460;28;20053;-80
2021/09/04 05:12:49;;;;;;;31.95;14.80;;;15.80;99.90;;;;;;5044364;28;20060;-80
2021/09/04 05:15:24;;;;;;;31.00;12.60;;;15.90;99.90;;;;;;5026339;28;20045;-80
2021/09/04 05:17:52;;;;;;;32.58;14.10;;;15.90;99.90;;;;;;5044862;28;20402;-81
2021/09/04 05:20:20;;;;;;;30.63;13.43;;;15.90;99.90;;;;;;5022936;28;20050;-80
2021/09/04 05:22:48;;;;;;;29.65;13.45;;;16.00;99.90;;;;;;5058413;28;20049;-80
2021/09/04 05:25:17;;;;;;;32.10;13.23;;;15.90;99.90;;;;;;5044676;28;20059;-80
2021/09/04 05:27:45;;;;;;;32.35;12.88;;;15.90;99.90;;;;;;5059560;28;20052;-81
2021/09/04 05:30:13;;;;;;;32.50;12.85;;;15.90;99.90;;;;;;5043440;28;20067;-80
2021/09/04 05:32:41;;;;;;;30.08;12.90;;;15.90;99.90;;;;;;5060396;28;20048;-81
2021/09/04 05:35:10;;;;;;;30.52;12.82;;;16.00;99.90;;;;;;5044730;28;20041;-80
2021/09/04 05:37:39;;;;;;;29.92;13.10;;;16.00;99.90;;;;;;5044771;28;20037;-80
2021/09/04 05:40:07;;;;;;;30.70;13.45;;;16.00;99.90;;;;;;5045993;28;20038;-80
2021/09/04 05:42:36;;;;;;;29.98;12.38;;;16.00;99.90;;;;;;5048043;28;20041;-80
2021/09/04 05:45:06;;;;;;;29.52;14.25;;;16.00;99.90;;;;;;5045856;28;20062;-81
2021/09/04 05:47:35;;;;;;;31.40;13.98;;;16.00;99.90;;;;;;5061420;28;20047;-80
2021/09/04 05:50:04;;;;;;;31.25;12.93;;;16.00;99.90;;;;;;5027348;28;20053;-80
2021/09/04 05:52:33;;;;;;;38.28;14.15;;;16.00;99.90;;;;;;5040153;28;20049;-80
2021/09/04 05:55:01;;;;;;;35.50;12.90;;;16.00;99.90;;;;;;5042430;28;20049;-80
2021/09/04 05:57:30;;;;;;;29.73;13.38;;;16.00;99.90;;;;;;5042964;28;20045;-80
2021/09/04 05:59:58;;;;;;;33.80;14.48;;;16.00;99.90;;;;;;5042617;28;20043;-81
2021/09/04 06:02:26;;;;;;;34.22;13.40;;;16.10;99.90;;;;;;5042989;28;20063;-81
2021/09/04 06:04:55;;;;;;;39.25;13.38;;;16.10;99.90;;;;;;5026261;28;20050;-80
2021/09/04 06:07:24;;;;;;;40.63;14.13;;;16.10;99.90;;;;;;5042339;28;20067;-80
2021/09/04 06:09:52;;;;;;;32.83;13.82;;;16.10;99.90;;;;;;5023758;28;20050;-80
2021/09/04 06:12:20;;;;;;;29.10;12.98;;;16.10;99.90;;;;;;5043718;28;20160;-81
2021/09/04 06:14:49;;;;;;;26.98;14.57;;;16.10;99.90;;;;;;5043914;28;20091;-80
2021/09/04 06:17:16;;;;;;;25.30;12.68;;;16.10;99.90;;;;;;5042216;28;20779;-80
2021/09/04 06:19:45;;;;;;;23.95;13.38;;;16.20;99.90;;;;;;5044082;28;20053;-80
2021/09/04 06:22:13;;;;;;;32.33;12.63;;;16.20;99.90;;;;;;5042972;28;20049;-80
2021/09/04 06:24:42;;;;;;;42.58;14.93;;;16.20;99.90;;;;;;5043911;28;20055;-80
2021/09/04 06:27:10;;;;;;;28.70;15.00;;;16.20;99.90;;;;;;5042392;28;20041;-80
2021/09/04 06:29:38;;;;;;;28.15;13.55;;;16.20;99.90;;;;;;5042208;28;20061;-80
2021/09/04 06:32:06;;;;;;;35.83;14.60;;;16.20;99.90;;;;;;5044143;28;20514;-80
2021/09/04 06:34:36;;;;;;;28.95;12.18;;;16.30;99.90;;;;;;5026169;28;20057;-80
2021/09/04 06:37:04;;;;;;;29.80;12.52;;;16.40;99.90;;;;;;5044104;28;20063;-80
2021/09/04 06:39:32;;;;;;;26.73;13.82;;;16.40;99.90;;;;;;5057028;28;20049;-81
2021/09/04 06:42:00;;;;;;;27.85;13.32;;;16.50;99.90;;;;;;5042473;28;20045;-80
2021/09/04 06:44:28;;;;;;;31.80;13.75;;;16.50;99.90;;;;;;5042264;28;20057;-81
2021/09/04 06:46:56;;;;;;;31.98;14.65;;;16.50;99.90;;;;;;5043845;28;20056;-80
2021/09/04 06:49:24;;;;;;;31.77;14.85;;;16.60;99.90;;;;;;5042066;28;20567;-79
2021/09/04 06:51:52;;;;;;;33.47;14.70;;;16.50;99.90;;;;;;5041768;28;20046;-81
2021/09/04 06:54:24;;;;;;;27.92;12.27;;;16.60;99.90;;;;;;5055844;28;20045;-80
2021/09/04 06:56:53;;;;;;;38.35;15.20;;;16.60;99.90;;;;;;5027578;28;20037;-80
2021/09/04 06:59:21;;;;;;;34.35;13.65;;;16.60;99.90;;;;;;5046057;28;20071;-80
2021/09/04 07:01:51;;;;;;;31.00;14.23;;;16.70;99.90;;;;;;5047455;28;20041;-80
2021/09/04 07:04:20;;;;;;;31.38;13.02;;;16.70;99.90;;;;;;5047155;28;20048;-78
2021/09/04 07:06:48;;;;;;;30.85;13.98;;;16.70;99.90;;;;;;5047416;28;20059;-79
2021/09/04 07:09:18;;;;;;;33.28;15.73;;;16.80;99.90;;;;;;5062439;28;20049;-80
2021/09/04 07:11:46;;;;;;;39.17;17.23;;;16.80;99.90;;;;;;5046838;28;20052;-80
2021/09/04 07:14:16;;;;;;;32.35;14.07;;;16.80;99.90;;;;;;5048234;28;20061;-80
2021/09/04 07:16:44;;;;;;;38.22;14.75;;;16.90;99.90;;;;;;5016808;28;20049;-80
2021/09/04 07:19:13;;;;;;;35.40;15.43;;;16.90;99.90;;;;;;5048213;28;20063;-80
2021/09/04 07:21:42;;;;;;;36.17;13.70;;;17.00;99.90;;;;;;5046828;28;20053;-79
2021/09/04 07:24:11;;;;;;;31.48;13.75;;;17.10;99.90;;;;;;5044161;28;20045;-79
2021/09/04 07:26:41;;;;;;;31.77;15.27;;;17.10;99.90;;;;;;5048438;28;20040;-80
2021/09/04 07:29:10;;;;;;;36.38;15.52;;;17.20;99.90;;;;;;5048346;28;20042;-79
2021/09/04 07:31:40;;;;;;;35.60;15.95;;;17.30;99.90;;;;;;5045551;28;20053;-80
2021/09/04 07:34:09;;;;;;;42.80;14.65;;;17.40;99.90;;;;;;5047884;28;20060;-80
2021/09/04 07:36:36;;;;;;;35.78;15.57;;;17.50;99.90;;;;;;5046008;28;20049;-80
2021/09/04 07:39:05;;;;;;;36.72;14.73;;;17.50;99.90;;;;;;5046048;28;20050;-79
2021/09/04 07:41:34;;;;;;;38.08;16.38;;;17.60;99.90;;;;;;5049636;28;20049;-80
2021/09/04 07:44:04;;;;;;;28.55;15.77;;;17.60;99.90;;;;;;5046685;28;20069;-80
2021/09/04 07:46:32;;;;;;;37.30;16.10;;;17.70;99.90;;;;;;5049124;28;20061;-81
2021/09/04 07:49:00;;;;;;;32.28;15.77;;;17.80;99.90;;;;;;5042417;28;20060;-81
2021/09/04 07:51:28;;;;;;;32.08;16.05;;;17.80;99.90;;;;;;5026475;28;20076;-80
2021/09/04 07:53:57;;;;;;;35.53;16.33;;;17.80;99.90;;;;;;5044515;28;20045;-79
2021/09/04 07:56:27;;;;;;;36.05;18.42;;;17.80;99.90;;;;;;5044519;28;20082;-80
2021/09/04 07:58:56;;;;;;;29.48;14.90;;;17.90;99.90;;;;;;5046017;28;20056;-79
2021/09/04 08:01:24;;;;;;;37.47;15.95;;;18.00;99.90;;;;;;5036719;28;20053;-79
2021/09/04 08:03:53;;;;;;;35.13;14.63;;;18.00;99.90;;;;;;5032604;28;20060;-80
2021/09/04 08:06:21;;;;;;;32.53;15.95;;;18.00;99.90;;;;;;5029304;28;20053;-80
2021/09/04 08:08:49;;;;;;;35.45;15.98;;;18.10;99.90;;;;;;5031770;28;20052;-79
2021/09/04 08:11:19;;;;;;;38.20;18.02;;;18.20;99.90;;;;;;5044748;28;20516;-81
2021/09/04 08:13:47;;;;;;;27.67;13.73;;;17.50;99.90;;;;;;5044954;28;20056;-79
2021/09/04 08:16:15;;;;;;;27.23;16.17;;;18.30;99.90;;;;;;5045779;28;20047;-79
2021/09/04 08:18:43;;;;;;;29.38;14.00;;;18.30;99.90;;;;;;5011576;28;20121;-80
2021/09/04 08:21:11;;;;;;;34.33;15.13;;;18.30;99.90;;;;;;5043970;28;20057;-80
2021/09/04 08:23:40;;;;;;;38.78;16.27;;;18.30;99.90;;;;;;5043941;28;20064;-80
2021/09/04 08:26:08;;;;;;;36.30;16.27;;;18.30;99.90;;;;;;5043933;28;20048;-81
2021/09/04 08:28:37;;;;;;;33.13;16.33;;;18.40;99.90;;;;;;5010599;28;20048;-80
2021/09/04 08:31:05;;;;;;;31.35;16.20;;;18.40;99.90;;;;;;5044471;28;20215;-81
2021/09/04 08:33:34;;;;;;;29.90;15.77;;;18.50;99.90;;;;;;5044721;28;20045;-82
2021/09/04 08:36:02;;;;;;;29.83;14.52;;;18.50;99.90;;;;;;5032933;28;20057;-81
2021/09/04 08:38:32;;;;;;;37.60;16.75;;;17.80;99.90;;;;;;5046026;28;20071;-81
2021/09/04 08:41:00;;;;;;;37.45;15.70;;;18.60;99.90;;;;;;5043196;28;20038;-80
2021/09/04 08:43:30;;;;;;;31.95;16.10;;;18.60;99.90;;;;;;5043223;28;20053;-81
2021/09/04 08:45:59;;;;;;;40.55;17.83;;;18.70;99.90;;;;;;5026408;28;20049;-80
2021/09/04 08:48:27;;;;;;;37.50;15.65;;;18.70;99.90;;;;;;5053890;28;20049;-79
2021/09/04 08:50:57;;;;;;;43.20;16.27;;;18.70;99.90;;;;;;5027945;28;20058;-81
2021/09/04 08:53:26;;;;;;;36.38;15.30;;;18.60;99.90;;;;;;5027492;28;20060;-81
2021/09/04 08:55:55;;;;;;;29.77;15.30;;;18.60;99.90;;;;;;5044900;28;20054;-81
2021/09/04 08:58:23;;;;;;;30.00;15.60;;;18.60;99.90;;;;;;5026907;28;20045;-81
2021/09/04 09:00:52;;;;;;;43.00;16.67;;;18.70;99.90;;;;;;5042526;28;20061;-81
2021/09/04 09:03:25;;;;;;;34.42;14.18;;;18.80;99.90;;;;;;5043608;28;20049;-81
2021/09/04 09:06:00;;;;;;;34.55;16.25;;;18.80;99.90;;;;;;5044742;28;20060;-79
2021/09/04 09:08:31;;;;;;;29.17;15.02;;;18.90;99.90;;;;;;5033100;28;20568;-81
2021/09/04 09:11:02;;;;;;;34.05;15.93;;;19.00;99.90;;;;;;5047795;28;20033;-80
2021/09/04 09:13:31;;;;;;;31.48;13.70;;;18.90;99.90;;;;;;5032608;28;20046;-81
2021/09/04 09:16:14;;;;;;;33.20;15.40;;;18.90;99.90;;;;;;5045795;28;20054;-79
2021/09/04 09:18:55;;;;;;;;;;;18.90;99.90;;;;;;5030846;28;20056;-80
2021/09/04 09:21:33;;;;;;;41.25;16.70;;;18.90;99.90;;;;;;5043218;28;19921;-81
2021/09/04 09:24:16;;;;;;;44.88;16.95;;;18.80;99.90;;;;;;5042175;28;20045;-80
2021/09/04 09:26:54;;;;;;;35.33;16.55;;;18.70;99.90;;;;;;5040629;28;20069;-80
2021/09/04 09:29:25;;;;;;;32.08;17.02;;;18.70;99.90;;;;;;5041322;28;20049;-80
2021/09/04 09:32:10;;;;;;;30.42;15.90;;;18.70;99.90;;;;;;5046881;28;20042;-79
2021/09/04 09:34:44;;;;;;;34.20;17.08;;;18.70;99.90;;;;;;5041204;28;20062;-80
2021/09/04 09:37:16;;;;;;;37.65;15.32;;;18.70;99.90;;;;;;5042450;28;20065;-79
2021/09/04 09:39:45;;;;;;;34.60;16.65;;;18.70;99.90;;;;;;5044663;28;20037;-79
2021/09/04 09:42:14;;;;;;;32.67;17.10;;;18.70;99.90;;;;;;5045799;28;20064;-79
2021/09/04 09:44:42;;;;;;;28.90;15.57;;;18.70;99.90;;;;;;5055314;28;20060;-81
2021/09/04 09:47:12;;;;;;;39.70;16.67;;;18.70;99.90;;;;;;5045039;28;20041;-81
2021/09/04 09:49:47;;;;;;;29.02;14.85;;;18.70;99.90;;;;;;5025748;28;20053;-80
2021/09/04 09:52:19;;;;;;;35.97;16.30;;;19.00;99.90;;;;;;5037173;28;20357;-81
2021/09/04 09:54:49;;;;;;;31.30;16.48;;;18.80;99.90;;;;;;5029138;28;20049;-80
2021/09/04 09:57:18;;;;;;;38.85;17.67;;;18.80;99.90;;;;;;5062746;28;20043;-83
2021/09/04 09:59:48;;;;;;;30.65;18.60;;;18.80;99.90;;;;;;5044534;28;20048;-80
2021/09/04 10:02:34;;;;;;;35.40;15.82;;;18.80;99.90;;;;;;5043432;28;20137;-81
2021/09/04 10:05:36;;;;;;;32.50;16.90;;;18.80;99.90;;;;;;5026735;28;20047;-80
2021/09/04 10:08:07;;;;;;;41.45;17.65;;;18.90;99.90;;;;;;5039508;28;20034;-81
2021/09/04 10:10:40;;;;;;;;;;;18.90;99.90;;;;;;5056419;28;20427;-81
2021/09/04 10:13:15;;;;;;;37.90;17.77;;;18.80;99.90;;;;;;5050142;28;19921;-81
2021/09/04 10:15:48;;;;;;;37.20;17.35;;;18.80;99.90;;;;;;5033617;28;20052;-80
2021/09/04 10:18:26;;;;;;;39.55;20.15;;;18.80;99.90;;;;;;5046888;28;20050;-80
2021/09/04 10:21:06;;;;;;;36.47;17.38;;;18.80;99.90;;;;;;5054917;28;20050;-81
2021/09/04 10:23:33;;;;;;;52.85;19.50;;;18.80;99.90;;;;;;5042246;28;20049;-80
2021/09/04 10:26:21;;;;;;;37.42;18.52;;;18.80;99.90;;;;;;5041242;28;20034;-79
2021/09/04 10:28:55;;;;;;;36.00;17.50;;;18.80;99.90;;;;;;5036863;28;20600;-80
2021/09/04 10:31:55;;;;;;;35.88;19.75;;;18.90;99.90;;;;;;5041752;28;20037;-81
2021/09/04 10:34:39;;;;;;;40.97;20.42;;;18.90;99.90;;;;;;5013261;28;20361;-81
2021/09/04 10:37:18;;;;;;;47.17;21.48;;;18.80;99.90;;;;;;5031055;28;20060;-80
2021/09/04 10:39:59;;;;;;;42.15;21.10;;;18.20;99.90;;;;;;5030875;28;20053;-80
2021/09/04 10:42:47;;;;;;;44.05;19.90;;;18.90;99.90;;;;;;5027416;28;20049;-80
2021/09/04 10:45:18;;;;;;;42.38;20.90;;;18.90;99.90;;;;;;5043829;28;20056;-79
2021/09/04 10:47:55;;;;;;;46.55;19.95;;;18.90;99.90;;;;;;5044446;28;20056;-82
2021/09/04 10:50:31;;;;;;;48.60;21.15;;;19.00;99.90;;;;;;5037068;28;20036;-80
2021/09/04 10:53:05;;;;;;;43.65;20.02;;;19.00;99.90;;;;;;5044335;28;20053;-80
2021/09/04 10:55:45;;;;;;;39.22;19.48;;;19.00;99.90;;;;;;5013720;28;20054;-81
2021/09/04 10:58:18;;;;;;;37.80;18.67;;;19.00;99.90;;;;;;5041380;28;20060;-81
2021/09/04 11:00:50;;;;;;;38.83;18.52;;;19.00;99.90;;;;;;5038044;28;20049;-82
2021/09/04 11:03:23;;;;;;;38.53;18.23;;;19.00;99.90;;;;;;5030298;28;20045;-80
2021/09/04 11:06:01;;;;;;;42.35;21.38;;;19.00;99.90;;;;;;5039744;28;20048;-81
2021/09/04 11:08:38;;;;;;;40.25;20.10;;;19.00;99.90;;;;;;5046933;28;20060;-80
2021/09/04 11:11:09;;;;;;;35.22;18.88;;;19.00;99.90;;;;;;5045140;28;20049;-80
2021/09/04 11:13:52;;;;;;;41.78;21.40;;;19.00;99.90;;;;;;5027496;28;20877;-80
2021/09/04 11:16:40;;;;;;;35.65;18.25;;;19.10;99.90;;;;;;5042790;28;20053;-79
2021/09/04 11:19:15;;;;;;;38.35;19.27;;;19.10;99.90;;;;;;5042883;28;20042;-83
2021/09/04 11:21:50;;;;;;;37.45;17.35;;;19.20;99.90;;;;;;5045187;28;20049;-81
2021/09/04 11:24:31;;;;;;;35.20;17.77;;;19.20;99.90;;;;;;5024195;28;20053;-81
2021/09/04 11:27:03;;;;;;;35.22;16.77;;;19.90;99.90;;;;;;5039335;28;20053;-80
2021/09/04 11:29:49;;;;;;;34.58;19.23;;;19.30;99.90;;;;;;5041011;28;20046;-81
2021/09/04 11:32:21;;;;;;;40.67;18.42;;;19.30;99.90;;;;;;5029370;28;20064;-81
2021/09/04 11:34:54;;;;;;;48.05;20.20;;;19.30;99.90;;;;;;5045912;28;20049;-80
2021/09/04 11:37:31;;;;;;;41.38;18.70;;;19.30;99.90;;;;;;5029004;28;20037;-81
2021/09/04 11:40:10;;;;;;;42.33;20.42;;;19.30;99.90;;;;;;5046702;28;20060;-83
2021/09/04 11:42:41;;;;;;;33.92;19.58;;;19.30;99.90;;;;;;5037770;28;20045;-81
2021/09/04 11:45:11;;;;;;;39.83;20.05;;;19.30;99.90;;;;;;5040392;28;20050;-80
2021/09/04 11:47:43;;;;;;;52.63;20.88;;;19.30;99.90;;;;;;5041217;28;20050;-81
2021/09/04 11:50:31;;;;;;;40.78;20.27;;;19.30;99.90;;;;;;5037808;28;20046;-81
2021/09/04 11:53:07;;;;;;;41.60;19.80;;;19.30;99.90;;;;;;5039769;28;20072;-82
2021/09/04 11:55:42;;;;;;;37.72;18.75;;;19.30;99.90;;;;;;5038945;28;20056;-81
2021/09/04 11:58:14;;;;;;;40.35;19.48;;;19.30;99.90;;;;;;5031627;28;20056;-80
2021/09/04 12:00:44;;;;;;;43.95;21.08;;;19.20;99.90;;;;;;5031424;28;20052;-80
2021/09/04 12:03:14;;;;;;;36.30;19.23;;;19.10;99.90;;;;;;5024230;28;20064;-84
2021/09/04 12:05:48;;;;;;;46.50;22.10;;;19.10;99.90;;;;;;5045833;28;20060;-81
2021/09/04 12:08:28;;;;;;;45.75;22.73;;;19.20;99.90;;;;;;5049109;28;20051;-82
2021/09/04 12:11:07;;;;;;;43.38;20.95;;;19.30;99.90;;;;;;5025785;28;20294;-88
2021/09/04 12:13:39;;;;;;;40.70;21.90;;;19.40;99.90;;;;;;5039178;28;20061;-81
2021/09/04 12:16:17;;;;;;;38.53;21.65;;;19.50;99.90;;;;;;5030882;28;20056;-84
2021/09/04 12:18:52;;;;;;;46.08;22.48;;;19.50;99.90;;;;;;5030574;28;20064;-82
2021/09/04 12:21:24;;;;;;;42.58;20.67;;;19.50;99.90;;;;;;5032450;28;20046;-81
2021/09/04 12:24:01;;;;;;;47.83;22.90;;;19.50;99.90;;;;;;5051428;28;20048;-82
2021/09/04 12:26:33;;;;;;;39.75;23.20;;;19.60;99.90;;;;;;5028183;28;20301;-82
2021/09/04 12:29:07;;;;;;;45.45;22.92;;;19.50;99.90;;;;;;5022411;28;20049;-83
2021/09/04 12:31:41;;;;;;;51.55;21.77;;;19.50;99.90;;;;;;5023612;28;20057;-82
2021/09/04 12:34:20;;;;;;;54.38;24.65;;;19.50;99.90;;;;;;5033012;28;20054;-82
2021/09/04 12:36:50;;;;;;;47.35;22.90;;;19.60;99.90;;;;;;5024099;28;20060;-82
2021/09/04 12:39:25;;;;;;;43.60;22.70;;;19.60;99.90;;;;;;5023503;28;20060;-82
2021/09/04 12:42:10;;;;;;;46.30;22.05;;;19.60;99.90;;;;;;5047907;28;20291;-81
2021/09/04 12:44:40;;;;;;;46.25;23.30;;;19.60;99.90;;;;;;5035385;28;20046;-81
2021/09/04 12:47:14;;;;;;;45.13;23.98;;;19.50;99.90;;;;;;5052333;28;20064;-81
2021/09/04 12:49:56;;;;;;;40.95;20.63;;;18.50;99.90;;;;;;5038707;28;20832;-81